Dalton City, Illinois
Current Conditions -  °F | °C
As of 11:54 AM on Saturday 25 Oct 2014 (Local Time) from KDEC Reporting Station
Clear Clear  
Wind Chill: 22°   Ceiling: Unl
Heat Index: 22°   Visibility: 8mi
Dew Point: 16°   Wind: 8mph
Humidity: 68%   Direction: 280°W
Pressure: 30.02"   Gusts: NA
Location:  39.71°N, 88.8°W
Report Text: KDEC 251654Z 28007KT 8SM CLR 22/16 A3002 RMK AO2 SLP163 T02170156
Loading
Personal Weather Stations






























Interactive Weather Map
Tropical Storm Tracking
New forecast layout! Learn more

10-Day Weather Forecast

Advertisements
Track Severe Weather on mobile